首页
METAR-TAF:

METAR-TAF

机场 :

德布勒森, 匈牙利

纬度: 47-29N, 经度: 021-36E, 海拔: 108米

当前天气观测

该预报发布于38分钟前的04:15 UTC
风速5节,风向东转东北
温度 3°C
湿度 100%
气压 1023 hPa
能見度: 8000

METAR: LHDC 190415Z AUTO 07005KT 8000 NCD 03/03 Q1023 NOSIG

时间: 05:53 (04:53 UTC)

预报

该预报发布于1小时和53分钟前的03:00 UTC
预报有效从19日的 03点(UTC)到 19日的 12点(UTC)
风速6节,风向
能見度: 5000
轻雾
短暂存在
从 19日的 03点(UTC)到 19日的 07点(UTC)
能見度: 1500
少量云层高于400英尺
轻雾
成为
从 19日的 07点(UTC)到 19日的 10点(UTC)
能见度10公里或以上
1500米以下无云,无积雨云

TAF: LHDC 190300Z 1903/1912 08006KT 5000 BR NSC TEMPO 1903/1907 1500 BR FEW004 BECMG 1907/1910 CAVOK

超过4000个机场的气象观测和天气预报(METAR&TAF报告)。

可查询的气象台以黄色和红色小点在地图上表示。

将鼠标移到小点上方,可查看气象台名称。

然后点击查看天气观测和预报。

如需切换地图:点击带黑十字的绿色按钮放大地图;点击带横线的绿色按钮缩小地图;或者点击绿色箭头查看邻近地区的地图。


METAR-TAF: